createdAt,value
2019-05-29T00:02:14.227Z,15.30
2019-05-29T00:04:46.372Z,15.30
2019-05-29T00:07:18.543Z,15.30
2019-05-29T00:09:50.747Z,15.20
2019-05-29T00:12:22.896Z,15.20
2019-05-29T00:14:54.998Z,15.20
2019-05-29T00:17:26.975Z,15.20
2019-05-29T00:19:59.065Z,15.20
2019-05-29T00:22:31.191Z,15.20
2019-05-29T00:25:03.284Z,15.10
2019-05-29T00:27:35.659Z,15.10
2019-05-29T00:30:08.858Z,15.10
2019-05-29T00:32:41.081Z,15.00
2019-05-29T00:35:14.076Z,14.90
2019-05-29T00:37:46.607Z,14.90
2019-05-29T00:40:19.074Z,15.00
2019-05-29T00:42:51.376Z,15.00
2019-05-29T00:45:24.056Z,14.90
2019-05-29T00:47:56.108Z,14.90
2019-05-29T00:50:28.265Z,14.90
2019-05-29T00:53:00.356Z,15.00
2019-05-29T00:55:32.484Z,14.90
2019-05-29T00:58:04.480Z,14.90
2019-05-29T01:00:36.822Z,14.90
2019-05-29T01:03:09.560Z,15.00
2019-05-29T01:05:41.750Z,15.00
2019-05-29T01:08:14.527Z,14.90
2019-05-29T01:10:46.567Z,14.90
2019-05-29T01:13:19.219Z,14.80
2019-05-29T01:15:52.112Z,14.70
2019-05-29T01:18:24.212Z,14.70
2019-05-29T01:20:56.418Z,14.70
2019-05-29T01:23:28.842Z,14.70
2019-05-29T01:26:20.888Z,14.70
2019-05-29T01:28:53.066Z,14.80
2019-05-29T01:31:25.103Z,14.70
2019-05-29T01:33:57.260Z,14.60
2019-05-29T01:36:29.304Z,14.70
2019-05-29T01:39:01.326Z,14.60
2019-05-29T01:41:33.292Z,14.50
2019-05-29T01:44:05.762Z,14.50
2019-05-29T01:46:37.882Z,14.50
2019-05-29T01:49:10.067Z,14.30
2019-05-29T01:51:42.872Z,14.30
2019-05-29T01:54:15.491Z,14.30
2019-05-29T01:56:48.912Z,14.20
2019-05-29T01:59:21.875Z,14.10
2019-05-29T02:01:55.095Z,14.10
2019-05-29T02:04:28.167Z,14.10
2019-05-29T02:07:00.967Z,14.10
2019-05-29T02:09:32.967Z,14.10
2019-05-29T02:12:05.900Z,14.10
2019-05-29T02:14:37.963Z,14.10
2019-05-29T02:17:12.677Z,14.10
2019-05-29T02:19:44.711Z,14.00
2019-05-29T02:22:16.973Z,14.20
2019-05-29T02:24:49.177Z,14.10
2019-05-29T02:27:21.934Z,14.00
2019-05-29T02:29:54.329Z,14.00
2019-05-29T02:32:27.867Z,14.00
2019-05-29T02:35:00.084Z,13.90
2019-05-29T02:37:32.186Z,14.00
2019-05-29T02:40:05.150Z,14.00
2019-05-29T02:42:37.558Z,14.10
2019-05-29T02:45:10.045Z,14.10
2019-05-29T02:47:42.100Z,14.20
2019-05-29T02:50:14.379Z,14.20
2019-05-29T02:52:48.069Z,14.20
2019-05-29T02:55:20.786Z,14.30
2019-05-29T02:57:53.450Z,14.30
2019-05-29T03:00:51.579Z,14.30
2019-05-29T03:03:26.825Z,14.30
2019-05-29T03:05:59.323Z,14.20
2019-05-29T03:08:34.316Z,14.20
2019-05-29T03:11:06.965Z,14.10
2019-05-29T03:13:39.784Z,14.10
2019-05-29T03:16:12.991Z,14.00
2019-05-29T03:18:45.483Z,14.10
2019-05-29T03:21:17.704Z,14.00
2019-05-29T03:23:49.950Z,14.00
2019-05-29T03:26:25.301Z,14.00
2019-05-29T03:28:55.829Z,14.00
2019-05-29T03:31:32.192Z,14.10
2019-05-29T03:34:01.813Z,14.00
2019-05-29T03:36:39.657Z,14.10
2019-05-29T03:39:08.803Z,14.00
2019-05-29T03:41:41.996Z,14.10
2019-05-29T03:44:13.965Z,14.00
2019-05-29T03:46:46.391Z,14.10
2019-05-29T03:49:18.823Z,14.00
2019-05-29T03:51:51.005Z,14.00
2019-05-29T03:54:23.110Z,14.00
2019-05-29T03:56:55.603Z,14.00
2019-05-29T03:59:28.559Z,14.00
2019-05-29T04:02:00.865Z,14.00
2019-05-29T04:04:33.671Z,14.00
2019-05-29T04:07:06.952Z,14.00
2019-05-29T04:09:39.045Z,14.00
2019-05-29T04:12:11.185Z,14.00
2019-05-29T04:14:43.242Z,14.10
2019-05-29T04:17:18.130Z,14.10
2019-05-29T04:19:51.122Z,14.10
2019-05-29T04:22:30.861Z,14.20
2019-05-29T04:25:06.625Z,14.10
2019-05-29T04:27:42.821Z,14.10
2019-05-29T04:30:15.724Z,14.10
2019-05-29T04:32:47.888Z,14.10
2019-05-29T04:35:19.912Z,14.10
2019-05-29T04:37:51.939Z,14.20
2019-05-29T04:40:24.004Z,14.40
2019-05-29T04:42:56.088Z,14.40
2019-05-29T04:45:28.973Z,14.30
2019-05-29T04:48:01.597Z,14.20
2019-05-29T04:50:35.708Z,14.20
2019-05-29T04:53:07.846Z,14.30
2019-05-29T04:55:40.148Z,14.30
2019-05-29T04:58:12.386Z,14.30
2019-05-29T05:00:58.195Z,14.30
2019-05-29T05:03:18.177Z,14.30
2019-05-29T05:05:50.228Z,14.20
2019-05-29T05:08:22.597Z,14.20
2019-05-29T05:10:54.728Z,14.20
2019-05-29T05:13:27.356Z,14.20
2019-05-29T05:16:02.839Z,14.30
2019-05-29T05:18:35.850Z,14.40
2019-05-29T05:21:08.102Z,14.40
2019-05-29T05:23:40.694Z,14.40
2019-05-29T05:26:13.119Z,14.40
2019-05-29T05:28:46.332Z,14.50
2019-05-29T05:31:18.933Z,14.50
2019-05-29T05:33:51.502Z,14.40
2019-05-29T05:36:23.871Z,14.50
2019-05-29T05:38:56.008Z,14.60
2019-05-29T05:41:28.174Z,14.70
2019-05-29T05:44:00.293Z,14.70
2019-05-29T05:46:32.924Z,14.90
2019-05-29T05:49:05.236Z,14.90
2019-05-29T05:51:42.387Z,14.90
2019-05-29T05:54:11.119Z,14.90
2019-05-29T05:56:43.956Z,15.00
2019-05-29T05:59:16.227Z,14.90
2019-05-29T06:01:48.289Z,14.90
2019-05-29T06:04:20.472Z,14.80
2019-05-29T06:06:52.576Z,14.80
2019-05-29T06:09:24.613Z,14.80
2019-05-29T06:11:56.699Z,14.80
2019-05-29T06:14:28.715Z,14.80
2019-05-29T06:17:00.935Z,14.80
2019-05-29T06:19:33.150Z,14.80
2019-05-29T06:22:05.221Z,14.70
2019-05-29T06:24:37.348Z,14.70
2019-05-29T06:27:09.370Z,14.70
2019-05-29T06:29:41.439Z,14.70
2019-05-29T06:32:13.621Z,14.70
2019-05-29T06:34:45.771Z,14.70
2019-05-29T06:37:17.893Z,14.80
2019-05-29T06:39:49.975Z,14.90
2019-05-29T06:42:22.886Z,14.90
2019-05-29T06:44:54.979Z,14.90
2019-05-29T06:47:27.496Z,14.90
2019-05-29T06:49:59.602Z,15.00
2019-05-29T06:52:31.751Z,15.10
2019-05-29T06:55:03.960Z,15.10
2019-05-29T06:57:36.238Z,15.20
2019-05-29T07:00:35.347Z,15.30
2019-05-29T07:03:01.736Z,15.30
2019-05-29T07:05:33.766Z,15.30
2019-05-29T07:08:18.053Z,15.40
2019-05-29T07:10:40.405Z,15.40
2019-05-29T07:13:12.625Z,15.40
2019-05-29T07:15:45.809Z,15.40
2019-05-29T07:18:18.818Z,15.30
2019-05-29T07:20:50.966Z,15.40
2019-05-29T07:23:25.713Z,15.40
2019-05-29T07:25:57.798Z,15.40
2019-05-29T07:28:30.510Z,15.50
2019-05-29T07:31:03.930Z,15.90
2019-05-29T07:33:37.008Z,16.20
2019-05-29T07:36:09.975Z,16.40
2019-05-29T07:38:47.708Z,16.40
2019-05-29T07:41:16.747Z,16.40
2019-05-29T07:43:48.913Z,16.20
2019-05-29T07:46:21.071Z,16.20
2019-05-29T07:48:53.147Z,16.10
2019-05-29T07:51:25.592Z,16.30
2019-05-29T07:53:57.585Z,16.30
2019-05-29T07:56:29.607Z,16.20
2019-05-29T07:59:03.496Z,16.00
2019-05-29T08:01:35.495Z,16.00
2019-05-29T08:04:07.798Z,15.90
2019-05-29T08:06:47.763Z,15.90
2019-05-29T08:09:13.973Z,15.90
2019-05-29T08:11:47.626Z,15.80
2019-05-29T08:14:19.937Z,16.00
2019-05-29T08:16:52.104Z,16.00
2019-05-29T08:19:28.499Z,16.10
2019-05-29T08:22:00.609Z,16.30
2019-05-29T08:24:34.002Z,16.30
2019-05-29T08:27:06.230Z,16.30
2019-05-29T08:29:38.375Z,16.50
2019-05-29T08:32:10.411Z,16.30
2019-05-29T08:34:43.027Z,16.20
2019-05-29T08:37:15.277Z,16.30
2019-05-29T08:39:47.509Z,16.40
2019-05-29T08:42:23.221Z,16.50
2019-05-29T08:44:53.495Z,16.60
2019-05-29T08:47:25.490Z,16.80
2019-05-29T08:50:16.679Z,17.00
2019-05-29T08:52:32.113Z,17.00
2019-05-29T08:55:06.908Z,17.00
2019-05-29T08:57:38.971Z,16.90
2019-05-29T09:00:11.919Z,16.90
2019-05-29T09:02:44.675Z,17.00
2019-05-29T09:05:17.401Z,17.20
2019-05-29T09:07:50.031Z,17.20
2019-05-29T09:10:23.530Z,17.10
2019-05-29T09:13:04.362Z,17.30
2019-05-29T09:15:29.521Z,17.40
2019-05-29T09:18:01.632Z,17.50
2019-05-29T09:20:57.762Z,17.50
2019-05-29T09:23:07.545Z,17.70
2019-05-29T09:25:39.923Z,17.90
2019-05-29T09:28:16.501Z,17.90
2019-05-29T09:30:49.511Z,18.10
2019-05-29T09:33:23.533Z,18.00
2019-05-29T09:35:55.969Z,18.00
2019-05-29T09:38:28.150Z,17.90
2019-05-29T09:41:00.257Z,17.80
2019-05-29T09:43:32.400Z,17.60
2019-05-29T09:46:04.515Z,17.30
2019-05-29T09:48:49.304Z,17.30
2019-05-29T09:51:20.704Z,17.20
2019-05-29T09:53:44.621Z,17.20
2019-05-29T09:56:16.791Z,17.20
2019-05-29T09:58:48.932Z,17.30
2019-05-29T10:01:23.992Z,17.20
2019-05-29T10:03:56.513Z,17.30
2019-05-29T10:06:28.654Z,17.10
2019-05-29T10:09:01.761Z,17.20
2019-05-29T10:11:33.939Z,17.30
2019-05-29T10:14:06.139Z,17.30
2019-05-29T10:16:38.225Z,17.30
2019-05-29T10:19:10.836Z,17.30
2019-05-29T10:21:43.263Z,17.60
2019-05-29T10:24:16.166Z,17.40
2019-05-29T10:26:48.180Z,17.30
2019-05-29T10:29:20.238Z,17.30
2019-05-29T10:31:53.405Z,17.20
2019-05-29T10:34:25.734Z,17.20
2019-05-29T10:36:57.802Z,17.20
2019-05-29T10:39:30.465Z,17.20
2019-05-29T10:42:02.586Z,17.10
2019-05-29T10:44:34.607Z,17.10
2019-05-29T10:47:06.706Z,17.00
2019-05-29T10:49:38.760Z,17.00
2019-05-29T10:52:16.864Z,16.90
2019-05-29T10:54:44.766Z,17.00
2019-05-29T10:57:17.111Z,17.10
2019-05-29T10:59:49.174Z,17.00
2019-05-29T11:02:21.303Z,17.10
2019-05-29T11:04:56.711Z,17.20
2019-05-29T11:07:27.300Z,17.20
2019-05-29T11:09:59.385Z,17.00
2019-05-29T11:12:31.735Z,17.10
2019-05-29T11:15:20.379Z,17.30
2019-05-29T11:17:38.418Z,17.40
2019-05-29T11:20:11.706Z,17.20
2019-05-29T11:22:43.778Z,17.30
2019-05-29T11:25:22.491Z,17.30
2019-05-29T11:27:50.557Z,17.30
2019-05-29T11:30:22.864Z,17.30
2019-05-29T11:32:56.599Z,17.30
2019-05-29T11:35:28.760Z,17.30
2019-05-29T11:38:00.856Z,17.30
2019-05-29T11:40:33.254Z,17.30
2019-05-29T11:43:05.624Z,17.30
2019-05-29T11:45:38.137Z,17.30
2019-05-29T11:48:10.483Z,17.30
2019-05-29T11:50:42.973Z,17.20
2019-05-29T11:53:15.045Z,17.10
2019-05-29T11:55:47.280Z,17.20
2019-05-29T11:58:30.716Z,17.20
2019-05-29T12:00:53.074Z,17.20
2019-05-29T12:03:25.234Z,17.20
2019-05-29T12:05:57.666Z,17.30
2019-05-29T12:08:29.787Z,17.20
2019-05-29T12:11:01.915Z,17.10
2019-05-29T12:13:34.040Z,17.20
2019-05-29T12:16:06.357Z,17.20
2019-05-29T12:18:38.532Z,17.20
2019-05-29T12:21:10.527Z,17.20
2019-05-29T12:23:42.769Z,17.10
2019-05-29T12:26:22.439Z,17.10
2019-05-29T12:28:48.568Z,16.90
2019-05-29T12:31:20.579Z,17.00
2019-05-29T12:33:52.932Z,16.90
2019-05-29T12:36:24.987Z,16.80
2019-05-29T12:38:57.791Z,16.90
2019-05-29T12:41:30.167Z,16.80
2019-05-29T12:44:03.554Z,16.80
2019-05-29T12:46:37.553Z,16.80
2019-05-29T12:49:09.974Z,16.90
2019-05-29T12:51:42.421Z,16.80
2019-05-29T12:54:14.727Z,16.80
2019-05-29T12:56:46.784Z,16.80
2019-05-29T12:59:18.862Z,16.80
2019-05-29T13:01:50.904Z,16.90
2019-05-29T13:04:22.909Z,16.70
2019-05-29T13:06:56.172Z,16.90
2019-05-29T13:09:28.465Z,16.80
2019-05-29T13:12:00.733Z,16.70
2019-05-29T13:14:32.808Z,16.70
2019-05-29T13:17:05.249Z,16.70
2019-05-29T13:19:37.523Z,16.70
2019-05-29T13:22:10.961Z,16.60
2019-05-29T13:24:43.118Z,16.70
2019-05-29T13:27:15.399Z,16.70
2019-05-29T13:29:47.592Z,16.70
2019-05-29T13:32:19.658Z,16.80
2019-05-29T13:34:51.672Z,16.70
2019-05-29T13:37:23.691Z,16.80
2019-05-29T13:39:55.972Z,16.80
2019-05-29T13:42:28.160Z,16.70
2019-05-29T13:45:06.406Z,16.50
2019-05-29T13:47:33.948Z,16.50
2019-05-29T13:50:11.401Z,16.60
2019-05-29T13:52:41.741Z,16.60
2019-05-29T13:55:17.286Z,16.70
2019-05-29T13:57:49.427Z,16.70
2019-05-29T14:00:33.642Z,16.70
2019-05-29T14:02:56.448Z,16.60
2019-05-29T14:05:29.233Z,16.40
2019-05-29T14:08:02.617Z,16.50
2019-05-29T14:10:34.941Z,16.50
2019-05-29T14:13:07.454Z,16.50
2019-05-29T14:15:40.698Z,16.60
2019-05-29T14:18:13.051Z,16.50
2019-05-29T14:20:45.561Z,16.40
2019-05-29T14:23:17.722Z,16.50
2019-05-29T14:25:50.200Z,16.50
2019-05-29T14:28:22.230Z,16.60
2019-05-29T14:30:54.590Z,16.60
2019-05-29T14:33:26.692Z,16.60
2019-05-29T14:35:58.982Z,16.50
2019-05-29T14:38:31.031Z,16.60
2019-05-29T14:41:03.815Z,16.50
2019-05-29T14:43:36.033Z,16.60
2019-05-29T14:46:08.217Z,16.80
2019-05-29T14:48:40.543Z,16.70
2019-05-29T14:51:12.722Z,16.80
2019-05-29T14:53:44.828Z,17.00
2019-05-29T14:56:16.984Z,16.80
2019-05-29T14:58:49.290Z,16.80
2019-05-29T15:01:21.289Z,16.60
2019-05-29T15:03:53.442Z,16.50
2019-05-29T15:06:25.509Z,16.60
2019-05-29T15:08:57.639Z,16.60
2019-05-29T15:11:29.843Z,16.70
2019-05-29T15:14:02.346Z,16.70
2019-05-29T15:16:35.299Z,16.70
2019-05-29T15:19:07.383Z,16.60
2019-05-29T15:21:39.493Z,16.60
2019-05-29T15:24:11.646Z,16.60
2019-05-29T15:26:43.757Z,16.70
2019-05-29T15:29:17.898Z,16.90
2019-05-29T15:31:49.918Z,16.90
2019-05-29T15:34:22.115Z,16.90
2019-05-29T15:36:54.144Z,16.80
2019-05-29T15:39:26.251Z,16.90
2019-05-29T15:41:58.486Z,17.00
2019-05-29T15:44:30.867Z,16.90
2019-05-29T15:47:02.935Z,16.80
2019-05-29T15:49:34.991Z,16.80
2019-05-29T15:52:07.336Z,16.80
2019-05-29T15:54:39.437Z,16.70
2019-05-29T15:57:11.446Z,16.80
2019-05-29T15:59:43.688Z,16.80
2019-05-29T16:02:15.807Z,16.70
2019-05-29T16:04:47.940Z,16.80
2019-05-29T16:07:20.026Z,16.80
2019-05-29T16:09:52.099Z,16.70
2019-05-29T16:12:24.188Z,16.70
2019-05-29T16:14:56.416Z,16.70
2019-05-29T16:17:28.755Z,16.70
2019-05-29T16:20:00.830Z,16.60
2019-05-29T16:22:33.119Z,16.50
2019-05-29T16:25:07.788Z,16.50
2019-05-29T16:27:40.043Z,16.40
2019-05-29T16:30:15.547Z,16.50
2019-05-29T16:32:47.907Z,16.50
2019-05-29T16:35:20.813Z,16.50
2019-05-29T16:37:52.890Z,16.40
2019-05-29T16:40:25.659Z,16.40
2019-05-29T16:42:57.753Z,16.30
2019-05-29T16:45:30.048Z,16.50
2019-05-29T16:48:02.502Z,16.40
2019-05-29T16:50:34.652Z,16.40
2019-05-29T16:53:06.851Z,16.30
2019-05-29T16:55:52.957Z,16.30
2019-05-29T16:58:13.009Z,16.30
2019-05-29T17:00:45.120Z,16.30
2019-05-29T17:03:17.684Z,16.30
2019-05-29T17:05:50.106Z,16.40
2019-05-29T17:08:22.349Z,16.40
2019-05-29T17:10:54.651Z,16.30
2019-05-29T17:13:26.906Z,16.30
2019-05-29T17:15:58.942Z,16.10
2019-05-29T17:18:31.119Z,16.20
2019-05-29T17:21:03.161Z,16.20
2019-05-29T17:23:35.439Z,16.20
2019-05-29T17:26:10.555Z,16.20
2019-05-29T17:28:41.365Z,16.00
2019-05-29T17:31:14.862Z,16.10
2019-05-29T17:33:47.108Z,16.00
2019-05-29T17:36:19.472Z,16.00
2019-05-29T17:38:51.749Z,16.00
2019-05-29T17:41:25.264Z,15.90
2019-05-29T17:43:57.457Z,15.90
2019-05-29T17:46:29.506Z,15.80
2019-05-29T17:49:01.676Z,15.70
2019-05-29T17:51:34.037Z,15.80
2019-05-29T17:54:06.605Z,15.80
2019-05-29T17:56:38.772Z,15.70
2019-05-29T17:59:11.256Z,15.70
2019-05-29T18:01:43.364Z,15.70
2019-05-29T18:04:15.947Z,15.60
2019-05-29T18:06:49.299Z,15.60
2019-05-29T18:09:24.697Z,15.60
2019-05-29T18:11:55.729Z,15.60
2019-05-29T18:14:27.908Z,15.60
2019-05-29T18:17:00.123Z,15.60
2019-05-29T18:19:32.211Z,15.60
2019-05-29T18:22:04.350Z,15.50
2019-05-29T18:24:36.459Z,15.50
2019-05-29T18:27:08.917Z,15.40
2019-05-29T18:29:41.080Z,15.50
2019-05-29T18:32:13.187Z,15.50
2019-05-29T18:34:45.412Z,15.40
2019-05-29T18:37:17.939Z,15.40
2019-05-29T18:39:50.390Z,15.40
2019-05-29T18:42:22.562Z,15.40
2019-05-29T18:44:54.695Z,15.50
2019-05-29T18:47:27.299Z,15.40
2019-05-29T18:49:59.452Z,15.40
2019-05-29T18:52:32.877Z,15.30
2019-05-29T18:55:05.778Z,15.30
2019-05-29T18:57:37.978Z,15.40
2019-05-29T19:00:10.720Z,15.30
2019-05-29T19:02:43.324Z,15.30
2019-05-29T19:05:16.410Z,15.30
2019-05-29T19:07:48.546Z,15.30
2019-05-29T19:10:21.605Z,15.30
2019-05-29T19:12:54.400Z,15.30
2019-05-29T19:15:27.791Z,15.30
2019-05-29T19:18:00.273Z,15.30
2019-05-29T19:20:32.704Z,15.20
2019-05-29T19:23:04.892Z,15.20
2019-05-29T19:25:37.073Z,15.20
2019-05-29T19:28:09.234Z,15.30
2019-05-29T19:30:41.366Z,15.20
2019-05-29T19:33:13.552Z,15.20
2019-05-29T19:35:45.689Z,15.20
2019-05-29T19:38:17.835Z,15.20
2019-05-29T19:40:49.970Z,15.20
2019-05-29T19:43:22.249Z,15.10
2019-05-29T19:45:54.346Z,15.10
2019-05-29T19:48:26.902Z,15.20
2019-05-29T19:50:59.189Z,15.20
2019-05-29T19:53:31.519Z,15.20
2019-05-29T19:56:03.836Z,15.20
2019-05-29T19:58:36.217Z,15.10
2019-05-29T20:01:08.551Z,15.20
2019-05-29T20:03:40.702Z,15.20
2019-05-29T20:06:12.842Z,15.20
2019-05-29T20:08:45.000Z,15.00
2019-05-29T20:11:17.148Z,15.10
2019-05-29T20:13:49.494Z,15.00
2019-05-29T20:16:21.690Z,15.00
2019-05-29T20:18:53.784Z,14.90
2019-05-29T20:21:25.883Z,14.80
2019-05-29T20:23:57.997Z,14.80
2019-05-29T20:26:30.889Z,14.80
2019-05-29T20:29:03.138Z,14.70
2019-05-29T20:31:36.558Z,14.80
2019-05-29T20:34:08.763Z,14.70
2019-05-29T20:36:41.554Z,14.70
2019-05-29T20:39:13.857Z,14.70
2019-05-29T20:41:46.088Z,14.70
2019-05-29T20:44:18.124Z,14.70
2019-05-29T20:46:50.281Z,14.70
2019-05-29T20:49:22.403Z,14.50
2019-05-29T20:51:54.526Z,14.40
2019-05-29T20:54:26.943Z,14.30
2019-05-29T20:57:00.612Z,14.30
2019-05-29T20:59:33.793Z,14.30
2019-05-29T21:02:06.129Z,14.40
2019-05-29T21:04:38.942Z,14.30
2019-05-29T21:07:11.347Z,14.30
2019-05-29T21:09:43.682Z,14.20
2019-05-29T21:12:15.767Z,14.30
2019-05-29T21:14:47.952Z,14.30
2019-05-29T21:17:20.198Z,14.30
2019-05-29T21:19:52.490Z,14.30
2019-05-29T21:22:24.682Z,14.20
2019-05-29T21:25:03.972Z,14.20
2019-05-29T21:27:30.784Z,14.20
2019-05-29T21:30:02.935Z,14.00
2019-05-29T21:32:35.717Z,14.00
2019-05-29T21:35:08.382Z,14.00
2019-05-29T21:37:40.493Z,14.00
2019-05-29T21:40:13.148Z,14.00
2019-05-29T21:42:45.266Z,13.90
2019-05-29T21:45:17.886Z,13.90
2019-05-29T21:47:49.996Z,13.90
2019-05-29T21:50:23.993Z,13.90
2019-05-29T21:52:56.301Z,13.80
2019-05-29T21:55:28.522Z,13.80
2019-05-29T21:58:00.610Z,13.80
2019-05-29T22:00:42.380Z,13.80
2019-05-29T22:03:14.765Z,13.70
2019-05-29T22:05:46.937Z,13.80
2019-05-29T22:08:19.251Z,13.70
2019-05-29T22:10:51.568Z,13.70
2019-05-29T22:13:23.903Z,13.70
2019-05-29T22:15:56.873Z,13.70
2019-05-29T22:18:29.134Z,13.70
2019-05-29T22:21:01.711Z,13.70
2019-05-29T22:23:36.880Z,13.70
2019-05-29T22:26:09.073Z,13.80
2019-05-29T22:28:41.365Z,13.70
2019-05-29T22:31:13.483Z,13.70
2019-05-29T22:33:45.675Z,13.70
2019-05-29T22:36:18.439Z,13.70
2019-05-29T22:38:51.407Z,13.60
2019-05-29T22:41:23.699Z,13.60
2019-05-29T22:43:55.693Z,13.60
2019-05-29T22:46:28.083Z,13.50
2019-05-29T22:49:00.153Z,13.50
2019-05-29T22:51:32.331Z,13.50
2019-05-29T22:54:04.493Z,13.40
2019-05-29T22:56:36.598Z,13.40
2019-05-29T22:59:08.679Z,13.30
2019-05-29T23:01:40.841Z,13.30
2019-05-29T23:04:12.909Z,13.30
2019-05-29T23:06:44.936Z,13.30
2019-05-29T23:09:16.967Z,13.30
2019-05-29T23:11:49.009Z,13.30
2019-05-29T23:14:21.064Z,13.20
2019-05-29T23:16:54.279Z,13.10
2019-05-29T23:19:26.543Z,13.10
2019-05-29T23:22:01.110Z,13.20
2019-05-29T23:24:33.472Z,13.10
2019-05-29T23:27:05.691Z,13.10
2019-05-29T23:29:48.648Z,13.10
2019-05-29T23:32:12.025Z,13.10
2019-05-29T23:34:44.144Z,13.10
2019-05-29T23:37:16.282Z,13.00
2019-05-29T23:39:48.370Z,13.00
2019-05-29T23:42:20.792Z,12.90
2019-05-29T23:44:54.046Z,12.90
2019-05-29T23:47:26.800Z,12.90
2019-05-29T23:49:59.719Z,12.90
2019-05-29T23:52:31.777Z,12.90
2019-05-29T23:55:04.182Z,12.80
2019-05-29T23:57:36.715Z,12.80
